sensor_id;sensor_type;location;lat;lon;timestamp;temperature;humidity
60701;DHT22;46541;49.894;10.886;2023-08-20T00:01:23;25.50;99.90
60701;DHT22;46541;49.894;10.886;2023-08-20T00:03:51;25.40;99.90
60701;DHT22;46541;49.894;10.886;2023-08-20T00:06:19;25.40;99.90
60701;DHT22;46541;49.894;10.886;2023-08-20T00:08:47;25.30;99.90
60701;DHT22;46541;49.894;10.886;2023-08-20T00:11:15;25.30;99.90
60701;DHT22;46541;49.894;10.886;2023-08-20T00:13:42;25.30;99.90
60701;DHT22;46541;49.894;10.886;2023-08-20T00:16:09;25.30;99.90
60701;DHT22;46541;49.894;10.886;2023-08-20T00:18:37;25.20;99.90
60701;DHT22;46541;49.894;10.886;2023-08-20T00:21:05;25.20;99.90
60701;DHT22;46541;49.894;10.886;2023-08-20T00:23:33;25.20;99.90
60701;DHT22;46541;49.894;10.886;2023-08-20T00:26:00;25.20;99.90
60701;DHT22;46541;49.894;10.886;2023-08-20T00:28:26;25.20;99.90
60701;DHT22;46541;49.894;10.886;2023-08-20T00:30:53;25.20;99.90
60701;DHT22;46541;49.894;10.886;2023-08-20T00:33:20;25.20;99.90
60701;DHT22;46541;49.894;10.886;2023-08-20T00:35:48;25.20;99.90
60701;DHT22;46541;49.894;10.886;2023-08-20T00:38:15;25.20;99.90
60701;DHT22;46541;49.894;10.886;2023-08-20T00:40:42;25.20;99.90
60701;DHT22;46541;49.894;10.886;2023-08-20T00:43:09;25.20;99.90
60701;DHT22;46541;49.894;10.886;2023-08-20T00:45:35;25.20;99.90
60701;DHT22;46541;49.894;10.886;2023-08-20T00:48:04;25.20;99.90
60701;DHT22;46541;49.894;10.886;2023-08-20T00:50:32;25.20;99.90
60701;DHT22;46541;49.894;10.886;2023-08-20T00:52:59;25.10;99.90
60701;DHT22;46541;49.894;10.886;2023-08-20T00:55:26;25.20;99.90
60701;DHT22;46541;49.894;10.886;2023-08-20T00:57:53;25.10;99.90
60701;DHT22;46541;49.894;10.886;2023-08-20T01:00:21;25.10;99.90
60701;DHT22;46541;49.894;10.886;2023-08-20T01:02:49;25.10;99.90
60701;DHT22;46541;49.894;10.886;2023-08-20T01:05:16;25.10;99.90
60701;DHT22;46541;49.894;10.886;2023-08-20T01:10:42;25.00;99.90
60701;DHT22;46541;49.894;10.886;2023-08-20T01:13:10;25.00;99.90
60701;DHT22;46541;49.894;10.886;2023-08-20T01:15:37;25.00;99.90
60701;DHT22;46541;49.894;10.886;2023-08-20T01:18:04;25.00;99.90
60701;DHT22;46541;49.894;10.886;2023-08-20T01:20:38;25.00;99.90
60701;DHT22;46541;49.894;10.886;2023-08-20T01:28:42;24.90;99.90
60701;DHT22;46541;49.894;10.886;2023-08-20T01:31:10;24.90;99.90
60701;DHT22;46541;49.894;10.886;2023-08-20T01:33:38;24.90;99.90
60701;DHT22;46541;49.894;10.886;2023-08-20T01:36:07;24.80;99.90
60701;DHT22;46541;49.894;10.886;2023-08-20T01:38:37;24.80;99.90
60701;DHT22;46541;49.894;10.886;2023-08-20T01:41:04;24.80;99.90
60701;DHT22;46541;49.894;10.886;2023-08-20T01:43:31;24.80;99.90
60701;DHT22;46541;49.894;10.886;2023-08-20T01:45:58;24.70;99.90
60701;DHT22;46541;49.894;10.886;2023-08-20T01:48:25;24.70;99.90
60701;DHT22;46541;49.894;10.886;2023-08-20T01:50:51;24.70;99.90
60701;DHT22;46541;49.894;10.886;2023-08-20T01:53:18;24.60;99.90
60701;DHT22;46541;49.894;10.886;2023-08-20T01:55:45;24.60;99.90
60701;DHT22;46541;49.894;10.886;2023-08-20T01:58:12;24.60;99.90
60701;DHT22;46541;49.894;10.886;2023-08-20T02:00:40;24.50;99.90
60701;DHT22;46541;49.894;10.886;2023-08-20T02:03:06;24.50;99.90
60701;DHT22;46541;49.894;10.886;2023-08-20T02:05:33;24.50;99.90
60701;DHT22;46541;49.894;10.886;2023-08-20T02:08:00;24.50;99.90
60701;DHT22;46541;49.894;10.886;2023-08-20T02:10:27;24.50;99.90
60701;DHT22;46541;49.894;10.886;2023-08-20T02:12:54;24.40;99.90
60701;DHT22;46541;49.894;10.886;2023-08-20T02:15:20;24.40;99.90
60701;DHT22;46541;49.894;10.886;2023-08-20T02:17:47;24.40;99.90
60701;DHT22;46541;49.894;10.886;2023-08-20T02:20:14;24.30;99.90
60701;DHT22;46541;49.894;10.886;2023-08-20T02:22:41;24.30;99.90
60701;DHT22;46541;49.894;10.886;2023-08-20T02:25:07;24.30;99.90
60701;DHT22;46541;49.894;10.886;2023-08-20T02:27:34;24.30;99.90
60701;DHT22;46541;49.894;10.886;2023-08-20T02:30:02;24.30;99.90
60701;DHT22;46541;49.894;10.886;2023-08-20T02:32:29;24.30;99.90
60701;DHT22;46541;49.894;10.886;2023-08-20T02:34:56;24.30;99.90
60701;DHT22;46541;49.894;10.886;2023-08-20T02:37:23;24.30;99.90
60701;DHT22;46541;49.894;10.886;2023-08-20T02:39:49;24.20;99.90
60701;DHT22;46541;49.894;10.886;2023-08-20T02:42:16;24.30;99.90
60701;DHT22;46541;49.894;10.886;2023-08-20T02:44:43;24.30;99.90
60701;DHT22;46541;49.894;10.886;2023-08-20T02:47:09;24.30;99.90
60701;DHT22;46541;49.894;10.886;2023-08-20T02:49:36;24.20;99.90
60701;DHT22;46541;49.894;10.886;2023-08-20T02:52:03;24.20;99.90
60701;DHT22;46541;49.894;10.886;2023-08-20T02:54:30;24.20;99.90
60701;DHT22;46541;49.894;10.886;2023-08-20T02:56:59;24.20;99.90
60701;DHT22;46541;49.894;10.886;2023-08-20T02:59:25;24.10;99.90
60701;DHT22;46541;49.894;10.886;2023-08-20T03:01:52;24.20;99.90
60701;DHT22;46541;49.894;10.886;2023-08-20T03:04:19;24.10;99.90
60701;DHT22;46541;49.894;10.886;2023-08-20T03:06:46;24.10;99.90
60701;DHT22;46541;49.894;10.886;2023-08-20T03:09:13;24.10;99.90
60701;DHT22;46541;49.894;10.886;2023-08-20T03:11:39;24.10;99.90
60701;DHT22;46541;49.894;10.886;2023-08-20T03:14:06;24.00;99.90
60701;DHT22;46541;49.894;10.886;2023-08-20T03:16:33;24.00;99.90
60701;DHT22;46541;49.894;10.886;2023-08-20T03:19:00;24.00;99.90
60701;DHT22;46541;49.894;10.886;2023-08-20T03:21:26;24.00;99.90
60701;DHT22;46541;49.894;10.886;2023-08-20T03:23:53;24.00;99.90
60701;DHT22;46541;49.894;10.886;2023-08-20T03:26:20;24.00;99.90
60701;DHT22;46541;49.894;10.886;2023-08-20T03:28:47;24.00;99.90
60701;DHT22;46541;49.894;10.886;2023-08-20T03:31:14;24.00;99.90
60701;DHT22;46541;49.894;10.886;2023-08-20T03:33:40;24.00;99.90
60701;DHT22;46541;49.894;10.886;2023-08-20T03:36:07;23.90;99.90
60701;DHT22;46541;49.894;10.886;2023-08-20T03:38:34;23.90;99.90
60701;DHT22;46541;49.894;10.886;2023-08-20T03:41:00;23.90;99.90
60701;DHT22;46541;49.894;10.886;2023-08-20T03:43:27;23.80;99.90
60701;DHT22;46541;49.894;10.886;2023-08-20T03:45:54;23.80;99.90
60701;DHT22;46541;49.894;10.886;2023-08-20T03:48:21;23.80;99.90
60701;DHT22;46541;49.894;10.886;2023-08-20T03:50:48;23.80;99.90
60701;DHT22;46541;49.894;10.886;2023-08-20T03:53:15;23.70;99.90
60701;DHT22;46541;49.894;10.886;2023-08-20T03:55:42;23.70;99.90
60701;DHT22;46541;49.894;10.886;2023-08-20T03:58:13;23.70;99.90
60701;DHT22;46541;49.894;10.886;2023-08-20T04:00:40;23.60;99.90
60701;DHT22;46541;49.894;10.886;2023-08-20T04:03:06;23.60;99.90
60701;DHT22;46541;49.894;10.886;2023-08-20T04:05:37;23.60;99.90
60701;DHT22;46541;49.894;10.886;2023-08-20T04:08:04;23.60;99.90
60701;DHT22;46541;49.894;10.886;2023-08-20T04:10:31;23.60;99.90
60701;DHT22;46541;49.894;10.886;2023-08-20T04:12:58;23.60;99.90
60701;DHT22;46541;49.894;10.886;2023-08-20T04:15:25;23.60;99.90
60701;DHT22;46541;49.894;10.886;2023-08-20T04:17:52;23.50;99.90
60701;DHT22;46541;49.894;10.886;2023-08-20T04:20:19;23.60;99.90
60701;DHT22;46541;49.894;10.886;2023-08-20T04:22:45;23.50;99.90
60701;DHT22;46541;49.894;10.886;2023-08-20T04:25:12;23.50;99.90
60701;DHT22;46541;49.894;10.886;2023-08-20T04:27:39;23.50;99.90
60701;DHT22;46541;49.894;10.886;2023-08-20T04:30:06;23.50;99.90
60701;DHT22;46541;49.894;10.886;2023-08-20T04:32:33;23.50;99.90
60701;DHT22;46541;49.894;10.886;2023-08-20T04:35:00;23.50;99.90
60701;DHT22;46541;49.894;10.886;2023-08-20T04:37:27;23.50;99.90
60701;DHT22;46541;49.894;10.886;2023-08-20T04:39:53;23.50;99.90
60701;DHT22;46541;49.894;10.886;2023-08-20T04:42:20;23.50;99.90
60701;DHT22;46541;49.894;10.886;2023-08-20T04:44:47;23.50;99.90
60701;DHT22;46541;49.894;10.886;2023-08-20T04:47:14;23.60;99.90
60701;DHT22;46541;49.894;10.886;2023-08-20T04:49:40;23.50;99.90
60701;DHT22;46541;49.894;10.886;2023-08-20T04:52:07;23.50;99.90
60701;DHT22;46541;49.894;10.886;2023-08-20T04:54:34;23.60;99.90
60701;DHT22;46541;49.894;10.886;2023-08-20T04:57:00;23.60;99.90
60701;DHT22;46541;49.894;10.886;2023-08-20T04:59:27;23.60;99.90
60701;DHT22;46541;49.894;10.886;2023-08-20T05:01:54;23.60;99.90
60701;DHT22;46541;49.894;10.886;2023-08-20T05:04:22;23.60;99.90
60701;DHT22;46541;49.894;10.886;2023-08-20T05:06:48;23.70;99.90
60701;DHT22;46541;49.894;10.886;2023-08-20T05:09:15;23.70;99.90
60701;DHT22;46541;49.894;10.886;2023-08-20T05:11:42;23.70;99.90
60701;DHT22;46541;49.894;10.886;2023-08-20T05:14:09;23.70;99.90
60701;DHT22;46541;49.894;10.886;2023-08-20T05:16:36;23.80;99.90
60701;DHT22;46541;49.894;10.886;2023-08-20T05:19:03;23.80;99.90
60701;DHT22;46541;49.894;10.886;2023-08-20T05:21:30;23.80;99.90
60701;DHT22;46541;49.894;10.886;2023-08-20T05:23:56;23.80;99.90
60701;DHT22;46541;49.894;10.886;2023-08-20T05:26:23;23.80;99.90
60701;DHT22;46541;49.894;10.886;2023-08-20T05:28:50;23.80;99.90
60701;DHT22;46541;49.894;10.886;2023-08-20T05:31:16;23.80;99.90
60701;DHT22;46541;49.894;10.886;2023-08-20T05:33:43;23.80;99.90
60701;DHT22;46541;49.894;10.886;2023-08-20T05:36:10;23.80;99.90
60701;DHT22;46541;49.894;10.886;2023-08-20T05:38:37;23.80;99.90
60701;DHT22;46541;49.894;10.886;2023-08-20T05:41:04;23.80;99.90
60701;DHT22;46541;49.894;10.886;2023-08-20T05:43:30;23.80;99.90
60701;DHT22;46541;49.894;10.886;2023-08-20T05:45:57;23.80;99.90
60701;DHT22;46541;49.894;10.886;2023-08-20T05:48:24;23.80;99.90
60701;DHT22;46541;49.894;10.886;2023-08-20T05:50:50;23.80;99.90
60701;DHT22;46541;49.894;10.886;2023-08-20T05:53:17;23.80;99.90
60701;DHT22;46541;49.894;10.886;2023-08-20T05:55:44;23.80;99.90
60701;DHT22;46541;49.894;10.886;2023-08-20T05:58:10;23.80;99.90
60701;DHT22;46541;49.894;10.886;2023-08-20T06:00:37;23.80;99.90
60701;DHT22;46541;49.894;10.886;2023-08-20T06:03:04;23.70;99.90
60701;DHT22;46541;49.894;10.886;2023-08-20T06:05:31;23.70;99.90
60701;DHT22;46541;49.894;10.886;2023-08-20T06:07:58;23.70;99.90
60701;DHT22;46541;49.894;10.886;2023-08-20T06:10:25;23.60;99.90
60701;DHT22;46541;49.894;10.886;2023-08-20T06:12:51;23.70;99.90
60701;DHT22;46541;49.894;10.886;2023-08-20T06:15:19;23.70;99.90
60701;DHT22;46541;49.894;10.886;2023-08-20T06:17:45;23.80;99.90
60701;DHT22;46541;49.894;10.886;2023-08-20T06:20:12;23.80;99.90
60701;DHT22;46541;49.894;10.886;2023-08-20T06:22:39;23.90;99.90
60701;DHT22;46541;49.894;10.886;2023-08-20T06:25:06;24.00;99.90
60701;DHT22;46541;49.894;10.886;2023-08-20T06:27:33;24.10;99.90
60701;DHT22;46541;49.894;10.886;2023-08-20T06:30:02;24.20;99.90
60701;DHT22;46541;49.894;10.886;2023-08-20T06:32:28;24.20;99.90
60701;DHT22;46541;49.894;10.886;2023-08-20T06:34:55;24.30;99.90
60701;DHT22;46541;49.894;10.886;2023-08-20T06:37:22;24.40;99.90
60701;DHT22;46541;49.894;10.886;2023-08-20T06:39:49;24.40;99.90
60701;DHT22;46541;49.894;10.886;2023-08-20T06:42:15;24.40;99.90
60701;DHT22;46541;49.894;10.886;2023-08-20T06:44:42;24.40;99.90
60701;DHT22;46541;49.894;10.886;2023-08-20T06:47:09;24.40;99.90
60701;DHT22;46541;49.894;10.886;2023-08-20T06:49:35;24.40;99.90
60701;DHT22;46541;49.894;10.886;2023-08-20T06:52:02;24.30;99.90
60701;DHT22;46541;49.894;10.886;2023-08-20T06:54:29;24.40;99.90
60701;DHT22;46541;49.894;10.886;2023-08-20T06:56:56;24.40;99.90
60701;DHT22;46541;49.894;10.886;2023-08-20T06:59:23;24.60;99.90
60701;DHT22;46541;49.894;10.886;2023-08-20T07:01:50;24.80;99.90
60701;DHT22;46541;49.894;10.886;2023-08-20T07:04:17;25.00;99.90
60701;DHT22;46541;49.894;10.886;2023-08-20T07:06:44;25.10;99.90
60701;DHT22;46541;49.894;10.886;2023-08-20T07:09:11;25.20;99.90
60701;DHT22;46541;49.894;10.886;2023-08-20T07:11:37;25.30;99.90
60701;DHT22;46541;49.894;10.886;2023-08-20T07:14:04;25.40;99.90
60701;DHT22;46541;49.894;10.886;2023-08-20T07:16:31;25.60;99.90
60701;DHT22;46541;49.894;10.886;2023-08-20T07:18:58;25.70;99.90
60701;DHT22;46541;49.894;10.886;2023-08-20T07:21:25;25.90;99.90
60701;DHT22;46541;49.894;10.886;2023-08-20T07:23:51;26.10;99.90
60701;DHT22;46541;49.894;10.886;2023-08-20T07:26:18;26.20;99.90
60701;DHT22;46541;49.894;10.886;2023-08-20T07:28:45;26.20;99.90
60701;DHT22;46541;49.894;10.886;2023-08-20T07:33:52;26.50;99.90
60701;DHT22;46541;49.894;10.886;2023-08-20T07:36:20;26.60;99.90
60701;DHT22;46541;49.894;10.886;2023-08-20T07:38:51;26.80;99.90
60701;DHT22;46541;49.894;10.886;2023-08-20T07:41:19;26.80;99.90
60701;DHT22;46541;49.894;10.886;2023-08-20T07:43:47;26.90;99.90
60701;DHT22;46541;49.894;10.886;2023-08-20T07:46:14;27.00;99.90
60701;DHT22;46541;49.894;10.886;2023-08-20T07:48:41;27.20;99.90
60701;DHT22;46541;49.894;10.886;2023-08-20T07:51:09;27.20;99.90
60701;DHT22;46541;49.894;10.886;2023-08-20T07:53:35;27.40;99.90
60701;DHT22;46541;49.894;10.886;2023-08-20T07:56:03;27.60;99.90
60701;DHT22;46541;49.894;10.886;2023-08-20T07:58:30;27.60;99.90
60701;DHT22;46541;49.894;10.886;2023-08-20T08:00:56;27.70;99.90
60701;DHT22;46541;49.894;10.886;2023-08-20T08:03:27;27.90;99.90
60701;DHT22;46541;49.894;10.886;2023-08-20T08:05:54;28.00;99.90
60701;DHT22;46541;49.894;10.886;2023-08-20T08:08:22;28.00;99.90
60701;DHT22;46541;49.894;10.886;2023-08-20T08:10:49;28.10;99.90
60701;DHT22;46541;49.894;10.886;2023-08-20T08:13:19;28.30;99.90
60701;DHT22;46541;49.894;10.886;2023-08-20T08:15:46;28.30;99.90
60701;DHT22;46541;49.894;10.886;2023-08-20T08:18:13;28.50;99.90
60701;DHT22;46541;49.894;10.886;2023-08-20T08:20:40;28.60;99.90
60701;DHT22;46541;49.894;10.886;2023-08-20T08:23:07;28.80;99.90
60701;DHT22;46541;49.894;10.886;2023-08-20T08:25:34;29.00;99.90
60701;DHT22;46541;49.894;10.886;2023-08-20T08:28:00;29.10;99.90
60701;DHT22;46541;49.894;10.886;2023-08-20T08:30:28;29.20;99.90
60701;DHT22;46541;49.894;10.886;2023-08-20T08:32:56;29.40;99.90
60701;DHT22;46541;49.894;10.886;2023-08-20T08:35:23;29.50;99.90
60701;DHT22;46541;49.894;10.886;2023-08-20T08:37:52;29.50;99.90
60701;DHT22;46541;49.894;10.886;2023-08-20T08:40:19;29.50;99.90
60701;DHT22;46541;49.894;10.886;2023-08-20T08:42:48;29.50;99.90
60701;DHT22;46541;49.894;10.886;2023-08-20T08:45:18;29.70;99.90
60701;DHT22;46541;49.894;10.886;2023-08-20T08:47:49;29.80;99.90
60701;DHT22;46541;49.894;10.886;2023-08-20T08:50:16;29.90;99.90
60701;DHT22;46541;49.894;10.886;2023-08-20T08:52:45;30.00;99.90
60701;DHT22;46541;49.894;10.886;2023-08-20T08:55:12;30.30;99.90
60701;DHT22;46541;49.894;10.886;2023-08-20T08:57:39;30.30;99.90
60701;DHT22;46541;49.894;10.886;2023-08-20T09:00:06;30.30;99.90
60701;DHT22;46541;49.894;10.886;2023-08-20T09:02:34;30.20;99.90
60701;DHT22;46541;49.894;10.886;2023-08-20T09:05:00;30.20;99.90
60701;DHT22;46541;49.894;10.886;2023-08-20T09:07:27;30.30;99.90
60701;DHT22;46541;49.894;10.886;2023-08-20T09:09:58;30.40;99.90
60701;DHT22;46541;49.894;10.886;2023-08-20T09:12:27;30.50;99.90
60701;DHT22;46541;49.894;10.886;2023-08-20T09:14:55;30.50;99.90
60701;DHT22;46541;49.894;10.886;2023-08-20T09:17:28;30.60;99.90
60701;DHT22;46541;49.894;10.886;2023-08-20T09:19:55;30.80;99.90
60701;DHT22;46541;49.894;10.886;2023-08-20T09:22:26;31.10;99.90
60701;DHT22;46541;49.894;10.886;2023-08-20T09:24:55;31.20;99.90
60701;DHT22;46541;49.894;10.886;2023-08-20T09:27:23;31.00;99.90
60701;DHT22;46541;49.894;10.886;2023-08-20T09:29:51;30.80;99.90
60701;DHT22;46541;49.894;10.886;2023-08-20T09:32:19;31.10;99.90
60701;DHT22;46541;49.894;10.886;2023-08-20T09:34:51;31.00;99.90
60701;DHT22;46541;49.894;10.886;2023-08-20T09:37:22;31.00;99.90
60701;DHT22;46541;49.894;10.886;2023-08-20T09:39:50;31.20;99.90
60701;DHT22;46541;49.894;10.886;2023-08-20T09:42:17;31.00;99.90
60701;DHT22;46541;49.894;10.886;2023-08-20T09:44:45;31.10;99.90
60701;DHT22;46541;49.894;10.886;2023-08-20T09:47:16;31.30;99.90
60701;DHT22;46541;49.894;10.886;2023-08-20T09:49:46;31.40;99.90
60701;DHT22;46541;49.894;10.886;2023-08-20T09:52:21;31.50;99.90
60701;DHT22;46541;49.894;10.886;2023-08-20T09:55:07;31.80;99.90
60701;DHT22;46541;49.894;10.886;2023-08-20T09:57:41;31.80;99.90
60701;DHT22;46541;49.894;10.886;2023-08-20T10:00:12;31.90;99.90
60701;DHT22;46541;49.894;10.886;2023-08-20T10:02:43;32.10;99.90
60701;DHT22;46541;49.894;10.886;2023-08-20T10:05:11;32.20;99.90
60701;DHT22;46541;49.894;10.886;2023-08-20T10:07:39;32.40;99.90
60701;DHT22;46541;49.894;10.886;2023-08-20T10:10:07;32.40;99.90
60701;DHT22;46541;49.894;10.886;2023-08-20T10:12:35;32.40;99.90
60701;DHT22;46541;49.894;10.886;2023-08-20T10:15:03;32.50;99.90
60701;DHT22;46541;49.894;10.886;2023-08-20T10:17:32;32.60;99.90
60701;DHT22;46541;49.894;10.886;2023-08-20T10:20:02;32.50;99.70
60701;DHT22;46541;49.894;10.886;2023-08-20T10:22:39;32.60;99.70
60701;DHT22;46541;49.894;10.886;2023-08-20T10:25:22;32.60;99.60
60701;DHT22;46541;49.894;10.886;2023-08-20T10:27:49;32.90;99.40
60701;DHT22;46541;49.894;10.886;2023-08-20T10:30:17;32.80;99.30
60701;DHT22;46541;49.894;10.886;2023-08-20T10:35:14;32.80;99.30
60701;DHT22;46541;49.894;10.886;2023-08-20T10:38:01;32.80;99.30
60701;DHT22;46541;49.894;10.886;2023-08-20T10:40:53;32.90;99.10
60701;DHT22;46541;49.894;10.886;2023-08-20T10:48:41;32.80;99.40
60701;DHT22;46541;49.894;10.886;2023-08-20T10:51:32;32.70;99.90
60701;DHT22;46541;49.894;10.886;2023-08-20T10:56:43;32.60;99.70
60701;DHT22;46541;49.894;10.886;2023-08-20T10:59:26;32.50;99.80
60701;DHT22;46541;49.894;10.886;2023-08-20T11:01:58;32.50;99.90
60701;DHT22;46541;49.894;10.886;2023-08-20T11:04:28;32.40;99.90
60701;DHT22;46541;49.894;10.886;2023-08-20T11:06:56;32.40;99.60
60701;DHT22;46541;49.894;10.886;2023-08-20T11:09:26;32.40;99.70
60701;DHT22;46541;49.894;10.886;2023-08-20T11:11:54;32.50;99.20
60701;DHT22;46541;49.894;10.886;2023-08-20T11:14:21;32.50;98.90
60701;DHT22;46541;49.894;10.886;2023-08-20T11:16:49;32.80;98.70
60701;DHT22;46541;49.894;10.886;2023-08-20T11:19:21;32.90;98.60
60701;DHT22;46541;49.894;10.886;2023-08-20T11:21:48;32.80;98.40
60701;DHT22;46541;49.894;10.886;2023-08-20T11:24:16;32.90;97.90
60701;DHT22;46541;49.894;10.886;2023-08-20T11:26:44;32.90;98.40
60701;DHT22;46541;49.894;10.886;2023-08-20T11:29:13;33.00;97.90
60701;DHT22;46541;49.894;10.886;2023-08-20T11:31:40;32.90;98.70
60701;DHT22;46541;49.894;10.886;2023-08-20T11:34:07;32.90;98.60
60701;DHT22;46541;49.894;10.886;2023-08-20T11:36:35;32.70;98.60
60701;DHT22;46541;49.894;10.886;2023-08-20T11:39:02;32.70;98.10
60701;DHT22;46541;49.894;10.886;2023-08-20T11:41:29;32.90;98.60
60701;DHT22;46541;49.894;10.886;2023-08-20T11:43:56;33.00;98.20
60701;DHT22;46541;49.894;10.886;2023-08-20T11:46:24;33.10;98.00
60701;DHT22;46541;49.894;10.886;2023-08-20T11:49:07;33.20;98.30
60701;DHT22;46541;49.894;10.886;2023-08-20T11:54:09;33.50;97.40
60701;DHT22;46541;49.894;10.886;2023-08-20T11:56:46;33.50;96.80
60701;DHT22;46541;49.894;10.886;2023-08-20T11:59:14;33.40;96.40
60701;DHT22;46541;49.894;10.886;2023-08-20T12:01:41;33.40;96.30
60701;DHT22;46541;49.894;10.886;2023-08-20T12:04:09;33.40;96.00
60701;DHT22;46541;49.894;10.886;2023-08-20T12:06:37;33.60;96.40
60701;DHT22;46541;49.894;10.886;2023-08-20T12:09:24;33.60;96.70
60701;DHT22;46541;49.894;10.886;2023-08-20T12:11:52;33.70;96.30
60701;DHT22;46541;49.894;10.886;2023-08-20T12:14:19;33.90;96.30
60701;DHT22;46541;49.894;10.886;2023-08-20T12:16:46;34.00;96.00
60701;DHT22;46541;49.894;10.886;2023-08-20T12:19:14;34.10;96.10
60701;DHT22;46541;49.894;10.886;2023-08-20T12:21:40;34.00;95.90
60701;DHT22;46541;49.894;10.886;2023-08-20T12:24:10;33.90;95.80
60701;DHT22;46541;49.894;10.886;2023-08-20T12:26:40;33.90;95.50
60701;DHT22;46541;49.894;10.886;2023-08-20T12:29:07;33.90;96.00
60701;DHT22;46541;49.894;10.886;2023-08-20T12:31:35;33.80;95.70
60701;DHT22;46541;49.894;10.886;2023-08-20T12:34:02;33.70;96.20
60701;DHT22;46541;49.894;10.886;2023-08-20T12:36:30;33.60;96.00
60701;DHT22;46541;49.894;10.886;2023-08-20T12:38:56;33.40;96.20
60701;DHT22;46541;49.894;10.886;2023-08-20T12:41:23;33.20;95.30
60701;DHT22;46541;49.894;10.886;2023-08-20T12:43:50;33.10;95.30
60701;DHT22;46541;49.894;10.886;2023-08-20T12:46:17;33.10;95.20
60701;DHT22;46541;49.894;10.886;2023-08-20T12:48:44;33.10;94.60
60701;DHT22;46541;49.894;10.886;2023-08-20T12:51:11;33.10;94.80
60701;DHT22;46541;49.894;10.886;2023-08-20T12:53:40;33.10;94.90
60701;DHT22;46541;49.894;10.886;2023-08-20T12:56:07;33.00;95.00
60701;DHT22;46541;49.894;10.886;2023-08-20T12:58:34;33.10;94.90
60701;DHT22;46541;49.894;10.886;2023-08-20T13:01:01;33.00;94.50
60701;DHT22;46541;49.894;10.886;2023-08-20T13:03:28;33.00;94.50
60701;DHT22;46541;49.894;10.886;2023-08-20T13:05:56;33.00;94.00
60701;DHT22;46541;49.894;10.886;2023-08-20T13:08:26;33.00;93.80
60701;DHT22;46541;49.894;10.886;2023-08-20T13:10:54;33.00;93.90
60701;DHT22;46541;49.894;10.886;2023-08-20T13:13:23;33.00;94.40
60701;DHT22;46541;49.894;10.886;2023-08-20T13:15:51;33.00;94.50
60701;DHT22;46541;49.894;10.886;2023-08-20T13:18:19;32.90;94.40
60701;DHT22;46541;49.894;10.886;2023-08-20T13:20:46;32.90;94.60
60701;DHT22;46541;49.894;10.886;2023-08-20T13:23:13;32.90;95.10
60701;DHT22;46541;49.894;10.886;2023-08-20T13:25:40;32.80;94.80
60701;DHT22;46541;49.894;10.886;2023-08-20T13:28:07;32.80;93.90
60701;DHT22;46541;49.894;10.886;2023-08-20T13:30:34;32.80;93.90
60701;DHT22;46541;49.894;10.886;2023-08-20T13:33:01;32.80;94.10
60701;DHT22;46541;49.894;10.886;2023-08-20T13:35:28;32.90;95.00
60701;DHT22;46541;49.894;10.886;2023-08-20T13:37:54;33.10;94.60
60701;DHT22;46541;49.894;10.886;2023-08-20T13:40:21;33.10;94.60
60701;DHT22;46541;49.894;10.886;2023-08-20T13:42:48;33.00;94.20
60701;DHT22;46541;49.894;10.886;2023-08-20T13:45:15;32.90;94.40
60701;DHT22;46541;49.894;10.886;2023-08-20T13:47:42;32.80;94.80
60701;DHT22;46541;49.894;10.886;2023-08-20T13:50:13;32.70;94.80
60701;DHT22;46541;49.894;10.886;2023-08-20T13:52:40;32.60;93.70
60701;DHT22;46541;49.894;10.886;2023-08-20T13:55:07;32.50;93.00
60701;DHT22;46541;49.894;10.886;2023-08-20T13:57:34;32.50;91.90
60701;DHT22;46541;49.894;10.886;2023-08-20T14:00:01;32.50;92.80
60701;DHT22;46541;49.894;10.886;2023-08-20T14:02:34;32.50;92.70
60701;DHT22;46541;49.894;10.886;2023-08-20T14:05:01;32.50;92.30
60701;DHT22;46541;49.894;10.886;2023-08-20T14:07:31;32.40;92.00
60701;DHT22;46541;49.894;10.886;2023-08-20T14:09:59;32.40;92.00
60701;DHT22;46541;49.894;10.886;2023-08-20T14:12:26;32.40;92.50
60701;DHT22;46541;49.894;10.886;2023-08-20T14:14:53;32.40;92.20
60701;DHT22;46541;49.894;10.886;2023-08-20T14:17:19;32.30;92.10
60701;DHT22;46541;49.894;10.886;2023-08-20T14:19:46;32.30;92.20
60701;DHT22;46541;49.894;10.886;2023-08-20T14:22:13;32.40;92.70
60701;DHT22;46541;49.894;10.886;2023-08-20T14:24:40;32.40;92.60
60701;DHT22;46541;49.894;10.886;2023-08-20T14:27:06;32.60;92.30
60701;DHT22;46541;49.894;10.886;2023-08-20T14:29:34;32.70;92.20
60701;DHT22;46541;49.894;10.886;2023-08-20T14:32:01;32.80;92.10
60701;DHT22;46541;49.894;10.886;2023-08-20T14:34:28;33.10;91.70
60701;DHT22;46541;49.894;10.886;2023-08-20T14:36:55;33.10;91.20
60701;DHT22;46541;49.894;10.886;2023-08-20T14:39:21;33.10;91.50
60701;DHT22;46541;49.894;10.886;2023-08-20T14:41:48;33.00;91.50
60701;DHT22;46541;49.894;10.886;2023-08-20T14:44:15;33.10;92.20
60701;DHT22;46541;49.894;10.886;2023-08-20T14:46:42;33.10;91.80
60701;DHT22;46541;49.894;10.886;2023-08-20T14:49:08;33.10;91.40
60701;DHT22;46541;49.894;10.886;2023-08-20T14:51:35;33.10;91.80
60701;DHT22;46541;49.894;10.886;2023-08-20T14:54:02;33.10;91.50
60701;DHT22;46541;49.894;10.886;2023-08-20T14:56:30;33.10;91.70
60701;DHT22;46541;49.894;10.886;2023-08-20T14:58:56;33.10;92.20
60701;DHT22;46541;49.894;10.886;2023-08-20T15:01:23;33.00;92.20
60701;DHT22;46541;49.894;10.886;2023-08-20T15:03:50;32.80;91.90
60701;DHT22;46541;49.894;10.886;2023-08-20T15:06:17;32.80;92.40
60701;DHT22;46541;49.894;10.886;2023-08-20T15:08:48;32.60;92.30
60701;DHT22;46541;49.894;10.886;2023-08-20T15:11:14;32.50;91.70
60701;DHT22;46541;49.894;10.886;2023-08-20T15:13:41;32.50;92.40
60701;DHT22;46541;49.894;10.886;2023-08-20T15:16:08;32.40;92.00
60701;DHT22;46541;49.894;10.886;2023-08-20T15:18:35;32.30;92.20
60701;DHT22;46541;49.894;10.886;2023-08-20T15:21:01;32.20;92.20
60701;DHT22;46541;49.894;10.886;2023-08-20T15:23:29;32.20;92.60
60701;DHT22;46541;49.894;10.886;2023-08-20T15:25:56;32.20;92.90
60701;DHT22;46541;49.894;10.886;2023-08-20T15:28:24;32.10;93.40
60701;DHT22;46541;49.894;10.886;2023-08-20T15:30:52;32.10;92.70
60701;DHT22;46541;49.894;10.886;2023-08-20T15:33:20;32.10;93.50
60701;DHT22;46541;49.894;10.886;2023-08-20T15:35:47;32.00;93.10
60701;DHT22;46541;49.894;10.886;2023-08-20T15:38:14;32.00;93.00
60701;DHT22;46541;49.894;10.886;2023-08-20T15:40:41;31.90;92.70
60701;DHT22;46541;49.894;10.886;2023-08-20T15:43:08;31.90;93.30